Time;durP1;ratioP1;P1;durP2;ratioP2;P2;SDS_P1;SDS_P2;PMS_P1;PMS_P2;Temp;Humidity;BMP_temperature;BMP_pressure;BME280_temperature;BME280_humidity;BME280_pressure;Samples;Min_cycle;Max_cycle;Signal;HPM_P1;HPM_P2
2022/06/30 00:01:25;;;;;;;7.22;4.55;;;20.80;99.90;;;;;;5000236;28;20050;-86
2022/06/30 00:03:51;;;;;;;6.32;4.88;;;20.80;99.90;;;;;;4984946;28;20136;-86
2022/06/30 00:06:17;;;;;;;5.03;4.55;;;20.70;99.90;;;;;;5023309;28;20053;-86
2022/06/30 00:08:43;;;;;;;4.85;4.45;;;20.70;99.90;;;;;;4997224;28;20053;-85
2022/06/30 00:11:08;;;;;;;5.60;4.50;;;20.70;99.90;;;;;;5009976;28;20055;-87
2022/06/30 00:13:39;;;;;;;5.75;4.57;;;20.60;99.90;;;;;;5011173;28;20049;-85
2022/06/30 00:16:05;;;;;;;5.65;4.78;;;20.70;99.90;;;;;;4990815;28;20054;-86
2022/06/30 00:18:30;;;;;;;5.97;5.20;;;20.60;99.90;;;;;;4986798;28;20057;-86
2022/06/30 00:20:56;;;;;;;5.82;5.22;;;20.50;99.90;;;;;;5001314;28;20050;-87
2022/06/30 00:23:22;;;;;;;8.27;6.07;;;20.50;99.90;;;;;;5003740;28;20132;-87
2022/06/30 00:25:47;;;;;;;6.85;6.25;;;20.30;99.90;;;;;;5019525;28;20056;-85
2022/06/30 00:28:13;;;;;;;7.45;6.13;;;20.20;99.90;;;;;;5002303;28;20049;-86
2022/06/30 00:30:38;;;;;;;7.05;6.40;;;20.10;99.90;;;;;;5001784;28;20461;-85
2022/06/30 00:33:04;;;;;;;7.18;6.57;;;19.90;99.90;;;;;;5017741;28;20381;-87
2022/06/30 00:35:30;;;;;;;6.90;6.30;;;19.70;99.90;;;;;;5000776;28;20385;-87
2022/06/30 00:37:56;;;;;;;6.53;5.93;;;19.60;99.90;;;;;;5034790;28;20461;-87
2022/06/30 00:40:21;;;;;;;7.00;6.30;;;19.50;99.90;;;;;;5017749;28;20052;-86
2022/06/30 00:42:47;;;;;;;7.38;6.72;;;19.40;99.90;;;;;;5001172;28;20045;-87
2022/06/30 00:45:13;;;;;;;7.10;6.40;;;19.20;99.90;;;;;;5016986;28;20057;-86
2022/06/30 00:47:39;;;;;;;6.70;6.10;;;19.10;99.90;;;;;;5017117;28;20061;-86
2022/06/30 00:50:05;;;;;;;7.10;6.50;;;19.00;99.90;;;;;;5034283;28;20037;-87
2022/06/30 00:52:30;;;;;;;7.03;6.45;;;18.90;99.90;;;;;;5000529;28;20045;-85
2022/06/30 00:54:57;;;;;;;7.00;6.43;;;18.90;99.90;;;;;;5016468;28;20401;-87
2022/06/30 00:57:23;;;;;;;7.30;6.63;;;18.90;99.90;;;;;;5017229;28;20052;-87
2022/06/30 00:59:49;;;;;;;7.57;6.88;;;18.80;99.90;;;;;;5002285;28;20079;-87
2022/06/30 01:02:15;;;;;;;7.68;6.13;;;18.80;99.90;;;;;;4993709;28;20053;-88
2022/06/30 01:04:41;;;;;;;7.57;6.35;;;18.70;99.90;;;;;;4999238;28;20060;-87
2022/06/30 01:07:06;;;;;;;7.38;6.00;;;18.70;99.90;;;;;;5006300;28;20058;-89
2022/06/30 01:15:01;;;;;;;6.65;6.07;;;17.70;99.90;;;;;;5006813;28;20049;-88
2022/06/30 01:17:26;;;;;;;6.82;6.22;;;18.70;99.90;;;;;;4987412;28;20547;-86
2022/06/30 01:19:53;;;;;;;6.40;5.80;;;18.70;99.90;;;;;;5003710;28;20125;-87
2022/06/30 01:22:19;;;;;;;7.63;5.55;;;18.60;99.90;;;;;;5003561;28;20474;-85
2022/06/30 01:24:44;;;;;;;7.28;5.40;;;18.70;99.90;;;;;;5003102;28;20060;-85
2022/06/30 01:27:11;;;;;;;5.90;5.38;;;18.80;99.90;;;;;;5019733;28;20049;-86
2022/06/30 01:29:37;;;;;;;6.32;5.72;;;18.80;99.90;;;;;;5004451;28;20046;-87
2022/06/30 01:32:03;;;;;;;5.80;5.30;;;18.70;99.90;;;;;;5037154;28;20077;-86
2022/06/30 01:34:29;;;;;;;6.50;6.00;;;18.70;99.90;;;;;;5003425;28;20045;-86
2022/06/30 01:36:55;;;;;;;6.35;5.75;;;18.70;99.90;;;;;;5019551;28;20052;-86
2022/06/30 01:39:20;;;;;;;6.55;6.00;;;18.70;99.90;;;;;;5037077;28;20084;-86
2022/06/30 01:41:46;;;;;;;6.30;5.78;;;18.70;99.90;;;;;;4986918;28;20060;-86
2022/06/30 01:44:12;;;;;;;6.25;5.65;;;18.80;99.90;;;;;;5003526;28;20111;-86
2022/06/30 01:46:48;;;;;;;7.57;6.00;;;18.80;99.90;;;;;;5003019;28;20080;-87
2022/06/30 01:49:13;;;;;;;7.38;5.95;;;18.80;99.90;;;;;;4987454;28;20046;-87
2022/06/30 01:51:39;;;;;;;6.15;5.55;;;18.90;99.90;;;;;;4987397;28;20049;-86
2022/06/30 01:54:05;;;;;;;5.82;5.28;;;18.90;99.90;;;;;;5002969;28;20064;-86
2022/06/30 01:56:30;;;;;;;7.35;5.30;;;19.00;99.90;;;;;;5003831;28;20473;-88
2022/06/30 01:58:56;;;;;;;6.00;5.50;;;18.90;99.90;;;;;;5002928;28;20048;-86
2022/06/30 02:01:22;;;;;;;6.15;5.60;;;18.80;99.90;;;;;;5019300;28;20045;-87
2022/06/30 02:03:47;;;;;;;6.55;5.97;;;18.90;99.90;;;;;;5021104;28;20056;-88
2022/06/30 02:06:13;;;;;;;7.07;5.75;;;18.90;99.90;;;;;;5026422;28;20085;-86
2022/06/30 02:08:39;;;;;;;5.97;5.47;;;18.80;99.90;;;;;;5002613;28;20057;-86
2022/06/30 02:11:04;;;;;;;7.03;6.43;;;18.80;99.90;;;;;;5002494;28;20125;-87
2022/06/30 02:13:30;;;;;;;6.22;5.63;;;18.80;99.90;;;;;;5002382;28;20402;-84
2022/06/30 02:15:55;;;;;;;6.25;5.65;;;18.80;99.90;;;;;;5036306;28;20050;-86
2022/06/30 02:18:21;;;;;;;6.07;5.47;;;18.70;99.90;;;;;;5018796;28;20076;-87
2022/06/30 02:20:47;;;;;;;7.60;6.40;;;18.70;99.90;;;;;;5002201;28;20049;-86
2022/06/30 02:23:12;;;;;;;7.10;6.13;;;18.60;99.90;;;;;;5002351;28;20104;-86
2022/06/30 02:25:38;;;;;;;6.38;5.78;;;18.60;99.90;;;;;;5019507;28;20046;-88
2022/06/30 02:28:05;;;;;;;6.65;5.97;;;18.50;99.90;;;;;;4986753;28;20508;-88
2022/06/30 02:30:31;;;;;;;6.55;6.05;;;18.50;99.90;;;;;;5037153;28;20042;-87
2022/06/30 02:32:57;;;;;;;7.15;5.93;;;18.40;99.90;;;;;;5006006;28;20049;-88
2022/06/30 02:35:23;;;;;;;6.30;5.70;;;18.40;99.90;;;;;;5032165;28;20056;-87
2022/06/30 02:37:48;;;;;;;6.30;5.70;;;18.40;99.90;;;;;;5018160;28;20033;-90
2022/06/30 02:40:14;;;;;;;7.75;5.65;;;18.30;99.90;;;;;;5026073;28;20037;-86
2022/06/30 02:42:40;;;;;;;8.05;6.38;;;18.30;99.90;;;;;;5028545;28;20107;-86
2022/06/30 02:45:06;;;;;;;8.73;5.90;;;18.20;99.90;;;;;;5018137;28;20045;-87
2022/06/30 02:47:32;;;;;;;7.95;6.40;;;18.10;99.90;;;;;;5002327;28;20053;-87
2022/06/30 02:49:59;;;;;;;7.05;6.40;;;18.10;99.90;;;;;;4985833;28;20049;-88
2022/06/30 02:52:25;;;;;;;7.22;6.53;;;18.00;99.90;;;;;;4985421;28;20160;-87
2022/06/30 02:54:50;;;;;;;6.95;6.30;;;18.00;99.90;;;;;;5017815;28;20049;-87
2022/06/30 02:57:16;;;;;;;7.40;6.60;;;18.00;99.90;;;;;;5017725;28;20053;-86
2022/06/30 02:59:41;;;;;;;7.13;6.25;;;18.00;99.90;;;;;;5017914;28;20053;-87
2022/06/30 03:02:08;;;;;;;6.60;5.97;;;17.90;99.90;;;;;;5001776;28;20068;-88
2022/06/30 03:04:34;;;;;;;6.50;5.90;;;17.90;99.90;;;;;;5035201;28;20053;-86
2022/06/30 03:07:00;;;;;;;7.10;6.40;;;17.90;99.90;;;;;;5017579;28;20053;-87
2022/06/30 03:09:26;;;;;;;6.70;6.20;;;17.80;99.90;;;;;;5021365;28;20053;-87
2022/06/30 03:11:52;;;;;;;6.75;6.05;;;17.90;99.90;;;;;;4984689;28;20543;-86
2022/06/30 03:14:18;;;;;;;6.55;5.85;;;17.80;99.90;;;;;;5000592;28;20060;-87
2022/06/30 03:16:43;;;;;;;6.80;6.25;;;17.80;99.90;;;;;;5001169;28;20379;-86
2022/06/30 03:19:09;;;;;;;7.63;5.72;;;17.80;99.90;;;;;;5000749;28;20048;-86
2022/06/30 03:21:35;;;;;;;7.00;6.40;;;17.80;99.90;;;;;;4999893;28;20042;-88
2022/06/30 03:24:00;;;;;;;7.18;6.60;;;17.80;99.90;;;;;;5000330;28;20049;-87
2022/06/30 03:26:26;;;;;;;7.38;6.53;;;17.80;99.90;;;;;;4999888;28;20081;-87
2022/06/30 03:28:52;;;;;;;7.32;6.60;;;17.80;99.90;;;;;;5016917;28;20501;-87
2022/06/30 03:31:18;;;;;;;7.18;6.40;;;17.70;99.90;;;;;;5016977;28;20095;-87
2022/06/30 03:33:44;;;;;;;8.93;6.70;;;17.70;99.90;;;;;;5016648;28;20049;-88
2022/06/30 03:36:09;;;;;;;7.00;6.32;;;17.70;99.90;;;;;;5016520;28;20124;-88
2022/06/30 03:38:35;;;;;;;7.45;6.63;;;17.70;99.90;;;;;;4999918;28;20076;-87
2022/06/30 03:41:01;;;;;;;7.20;6.50;;;17.70;99.90;;;;;;5016438;28;20053;-86
2022/06/30 03:43:26;;;;;;;7.53;6.03;;;17.60;99.90;;;;;;5015765;28;20045;-87
2022/06/30 03:45:52;;;;;;;6.60;6.05;;;17.60;99.90;;;;;;5000341;28;20133;-87
2022/06/30 03:48:18;;;;;;;6.97;6.28;;;17.60;99.90;;;;;;5019877;28;20045;-86
2022/06/30 03:50:43;;;;;;;6.93;6.22;;;17.70;99.90;;;;;;5018288;28;20109;-86
2022/06/30 03:53:09;;;;;;;13.45;8.60;;;17.80;99.90;;;;;;5029647;28;20386;-88
2022/06/30 03:55:38;;;;;;;7.93;7.13;;;17.70;99.90;;;;;;5016748;28;20045;-88
2022/06/30 03:58:07;;;;;;;7.60;7.10;;;17.70;99.90;;;;;;5016182;28;20049;-86
2022/06/30 04:00:34;;;;;;;7.88;6.97;;;17.70;99.90;;;;;;4988223;28;20046;-86
2022/06/30 04:03:01;;;;;;;7.32;6.55;;;17.70;99.90;;;;;;5002020;28;20363;-86
2022/06/30 04:05:28;;;;;;;9.75;6.97;;;17.80;99.90;;;;;;4994491;28;20058;-86
2022/06/30 04:07:54;;;;;;;9.10;6.90;;;17.90;99.90;;;;;;4976293;28;1116800;-90
2022/06/30 04:10:19;;;;;;;7.70;7.00;;;17.90;99.90;;;;;;5040885;28;20057;-91
2022/06/30 04:12:45;;;;;;;7.97;7.20;;;17.90;99.90;;;;;;5030363;28;20175;-86
2022/06/30 04:15:11;;;;;;;9.13;6.97;;;17.90;99.90;;;;;;5018877;28;20050;-85
2022/06/30 04:17:36;;;;;;;7.72;6.57;;;17.90;99.90;;;;;;5018308;28;20045;-88
2022/06/30 04:20:15;;;;;;;8.27;7.20;;;18.00;99.90;;;;;;4985307;28;20133;-87
2022/06/30 04:22:48;;;;;;;10.80;7.68;;;17.90;99.90;;;;;;5002269;28;20108;-85
2022/06/30 04:25:14;;;;;;;7.80;7.10;;;17.80;99.90;;;;;;5000879;28;20053;-87
2022/06/30 04:27:44;;;;;;;8.20;7.32;;;17.80;99.90;;;;;;4984654;28;20057;-87
2022/06/30 04:30:10;;;;;;;8.98;7.53;;;17.80;99.90;;;;;;5017839;28;20050;-87
2022/06/30 04:32:39;;;;;;;8.13;6.95;;;17.90;99.90;;;;;;5000961;28;20140;-87
2022/06/30 04:35:09;;;;;;;8.30;7.50;;;17.80;99.90;;;;;;5001123;28;20478;-88
2022/06/30 04:37:35;;;;;;;7.80;6.93;;;17.90;99.90;;;;;;5017243;28;20088;-88
2022/06/30 04:42:45;;;;;;;;;;;18.10;99.90;;;;;;5021749;28;20115;-87
2022/06/30 04:45:11;;;;;;;8.65;6.45;;;18.90;99.90;;;;;;5004255;28;20320;-86
2022/06/30 04:47:36;;;;;;;7.30;6.60;;;19.70;99.90;;;;;;5004344;28;20053;-87
2022/06/30 04:50:06;;;;;;;8.77;6.53;;;20.50;99.90;;;;;;5021060;28;20041;-84
2022/06/30 04:52:32;;;;;;;7.00;6.35;;;21.10;99.90;;;;;;5005543;28;20056;-87
2022/06/30 04:54:58;;;;;;;6.85;6.07;;;21.80;99.90;;;;;;5038477;28;20049;-88
2022/06/30 04:57:23;;;;;;;6.40;5.80;;;22.40;99.90;;;;;;5021178;28;20060;-86
2022/06/30 04:59:49;;;;;;;6.50;5.85;;;22.80;99.90;;;;;;5020581;28;20042;-87
2022/06/30 05:02:15;;;;;;;6.85;5.65;;;23.00;99.90;;;;;;5020488;28;20046;-87
2022/06/30 05:04:43;;;;;;;7.50;5.65;;;23.40;99.90;;;;;;5003788;28;20076;-87
2022/06/30 05:07:10;;;;;;;6.25;5.65;;;23.20;99.90;;;;;;5020191;28;20063;-88
2022/06/30 05:09:36;;;;;;;6.03;5.53;;;23.20;99.90;;;;;;5037815;28;20489;-86
2022/06/30 05:12:02;;;;;;;7.60;6.00;;;23.00;99.90;;;;;;5003640;28;20042;-87
2022/06/30 05:14:28;;;;;;;7.05;6.18;;;23.20;99.90;;;;;;5020527;28;20401;-85
2022/06/30 05:16:54;;;;;;;6.32;5.75;;;23.20;99.90;;;;;;5041791;28;20052;-86
2022/06/30 05:19:19;;;;;;;6.97;5.68;;;23.20;99.90;;;;;;5005480;28;20057;-87
2022/06/30 05:21:45;;;;;;;6.72;6.15;;;23.10;99.90;;;;;;4987552;28;20048;-87
2022/06/30 05:26:55;;;;;;;6.60;6.00;;;23.00;99.90;;;;;;5019950;28;20103;-86
2022/06/30 05:29:21;;;;;;;7.63;6.25;;;22.40;99.90;;;;;;5004651;28;20045;-86
2022/06/30 05:31:47;;;;;;;6.85;6.18;;;22.60;99.90;;;;;;5003175;28;20248;-87
2022/06/30 05:34:12;;;;;;;6.85;6.25;;;23.10;99.90;;;;;;5043035;28;20120;-87
2022/06/30 05:36:38;;;;;;;6.72;6.05;;;23.60;99.90;;;;;;5027093;28;20056;-85
2022/06/30 05:39:03;;;;;;;6.65;5.97;;;23.90;99.90;;;;;;5042223;28;20057;-88
2022/06/30 05:41:29;;;;;;;6.35;5.75;;;24.40;99.90;;;;;;5027204;28;20049;-91
2022/06/30 05:43:55;;;;;;;6.82;5.65;;;24.60;99.90;;;;;;5023158;28;20045;-86
2022/06/30 05:46:20;;;;;;;6.70;6.10;;;24.80;99.90;;;;;;5002994;28;20098;-85
2022/06/30 05:48:49;;;;;;;7.55;6.38;;;25.00;99.90;;;;;;5019100;28;20363;-87
2022/06/30 05:51:14;;;;;;;9.10;6.18;;;24.80;99.90;;;;;;5019555;28;20393;-87
2022/06/30 05:53:40;;;;;;;6.30;5.70;;;24.90;99.90;;;;;;5019406;28;20053;-86
2022/06/30 05:56:06;;;;;;;7.32;5.72;;;25.00;99.90;;;;;;5019258;28;20598;-85
2022/06/30 05:58:31;;;;;;;6.35;5.85;;;25.10;99.90;;;;;;5002376;28;20164;-85
2022/06/30 06:00:57;;;;;;;5.50;5.10;;;25.00;99.90;;;;;;5003462;28;20056;-87
2022/06/30 06:03:23;;;;;;;6.68;5.93;;;25.60;99.90;;;;;;5003208;28;20060;-87
2022/06/30 06:05:48;;;;;;;5.90;5.40;;;25.80;99.90;;;;;;5018984;28;20111;-85
2022/06/30 06:08:14;;;;;;;7.05;5.10;;;26.20;99.90;;;;;;5002317;28;20060;-87
2022/06/30 06:10:40;;;;;;;6.07;5.47;;;26.70;99.90;;;;;;5002637;28;20056;-86
2022/06/30 06:13:05;;;;;;;6.22;5.47;;;26.50;99.90;;;;;;5018751;28;20048;-85
2022/06/30 06:15:31;;;;;;;5.28;4.88;;;26.20;99.90;;;;;;5002302;28;20049;-87
2022/06/30 06:17:57;;;;;;;5.75;5.25;;;26.70;99.90;;;;;;4993606;28;20132;-88
2022/06/30 06:20:22;;;;;;;5.70;5.07;;;25.90;99.90;;;;;;4988612;28;20084;-89
2022/06/30 06:22:48;;;;;;;6.10;5.13;;;26.40;99.90;;;;;;5002393;28;20049;-89
2022/06/30 06:25:14;;;;;;;6.05;5.45;;;26.50;99.90;;;;;;5019589;28;20132;-88
2022/06/30 06:27:40;;;;;;;6.05;5.50;;;26.70;99.90;;;;;;5005232;28;20049;-85
2022/06/30 06:30:07;;;;;;;6.40;5.80;;;26.30;99.90;;;;;;5006872;28;20049;-86
2022/06/30 06:32:33;;;;;;;6.95;6.00;;;26.90;99.90;;;;;;4992393;28;20060;-89
2022/06/30 06:34:58;;;;;;;6.75;5.28;;;26.90;99.90;;;;;;5010193;28;20045;-90
2022/06/30 06:37:24;;;;;;;6.22;5.65;;;27.40;99.90;;;;;;4998480;28;20050;-94
2022/06/30 06:39:50;;;;;;;6.47;5.85;;;27.20;99.90;;;;;;5011114;28;20553;-90
2022/06/30 06:42:16;;;;;;;5.95;5.30;;;27.60;99.90;;;;;;5002731;28;20107;-88
2022/06/30 06:44:41;;;;;;;6.20;5.50;;;27.60;99.90;;;;;;5002887;28;20092;-91
2022/06/30 06:47:07;;;;;;;7.70;6.00;;;27.80;99.90;;;;;;5002587;28;20052;-87
2022/06/30 06:49:33;;;;;;;5.70;5.18;;;28.10;99.90;;;;;;5005293;28;20053;-93
2022/06/30 06:51:58;;;;;;;6.13;5.53;;;28.20;99.90;;;;;;4984842;28;20049;-87
2022/06/30 06:54:24;;;;;;;5.88;5.18;;;27.60;99.90;;;;;;4993995;28;20053;-90
2022/06/30 06:56:50;;;;;;;5.47;4.97;;;27.90;99.90;;;;;;5004592;28;20049;-86
2022/06/30 06:59:16;;;;;;;7.53;5.35;;;28.10;99.90;;;;;;5001504;28;20053;-84
2022/06/30 07:01:42;;;;;;;6.55;5.13;;;28.50;99.90;;;;;;5001190;28;20120;-86
2022/06/30 07:04:08;;;;;;;6.20;5.60;;;28.30;99.90;;;;;;5004621;28;20081;-88
2022/06/30 07:06:34;;;;;;;5.85;5.30;;;28.40;99.90;;;;;;5015304;28;20079;-86
2022/06/30 07:09:00;;;;;;;5.88;5.28;;;28.10;99.90;;;;;;5033879;28;20124;-90
2022/06/30 07:11:26;;;;;;;7.53;5.03;;;28.60;99.90;;;;;;5009040;28;20105;-90
2022/06/30 07:13:52;;;;;;;7.82;4.82;;;28.00;99.90;;;;;;5023862;28;20045;-86
2022/06/30 07:16:17;;;;;;;5.65;5.22;;;28.70;99.90;;;;;;5035771;28;20060;-89
2022/06/30 07:18:43;;;;;;;5.20;4.80;;;28.60;99.90;;;;;;5000893;28;20088;-88
2022/06/30 07:21:09;;;;;;;6.57;5.38;;;28.50;99.90;;;;;;5000630;28;20041;-87
2022/06/30 07:23:34;;;;;;;5.95;5.38;;;28.50;99.90;;;;;;5017474;28;20128;-86
2022/06/30 07:26:00;;;;;;;5.95;5.35;;;28.80;99.90;;;;;;5017739;28;20054;-86
2022/06/30 07:28:26;;;;;;;6.28;5.72;;;28.70;99.90;;;;;;5001275;28;20041;-87
2022/06/30 07:30:52;;;;;;;6.53;5.93;;;28.90;99.90;;;;;;5018009;28;20103;-85
2022/06/30 07:33:18;;;;;;;6.15;5.55;;;29.00;99.90;;;;;;5003115;28;20371;-85
2022/06/30 07:35:44;;;;;;;6.22;5.60;;;28.60;99.90;;;;;;5018753;28;20045;-87
2022/06/30 07:38:09;;;;;;;6.00;5.40;;;29.00;99.90;;;;;;5037403;28;20056;-86
2022/06/30 07:40:35;;;;;;;6.05;5.50;;;29.00;99.90;;;;;;5018204;28;20474;-86
2022/06/30 07:43:01;;;;;;;6.13;5.20;;;29.10;99.90;;;;;;5020245;28;20057;-85
2022/06/30 07:45:26;;;;;;;6.45;5.85;;;28.90;99.90;;;;;;5017962;28;20169;-85
2022/06/30 07:47:53;;;;;;;5.93;5.25;;;29.40;99.90;;;;;;5017810;28;20115;-86
2022/06/30 07:50:19;;;;;;;6.75;5.45;;;29.60;99.90;;;;;;5001692;28;20053;-86
2022/06/30 07:52:48;;;;;;;6.43;5.72;;;29.40;99.90;;;;;;5001891;28;20049;-86
2022/06/30 07:55:14;;;;;;;7.30;4.88;;;29.80;99.90;;;;;;5017155;28;20057;-88
2022/06/30 07:57:42;;;;;;;7.18;6.60;;;29.80;99.90;;;;;;4985659;28;20049;-88
2022/06/30 08:00:08;;;;;;;6.25;5.40;;;30.50;99.90;;;;;;5018130;28;20045;-86
2022/06/30 08:02:34;;;;;;;6.88;6.28;;;30.30;99.90;;;;;;5001788;28;20046;-88
2022/06/30 08:05:00;;;;;;;6.80;6.10;;;30.90;99.90;;;;;;5001227;28;20046;-88
2022/06/30 08:07:25;;;;;;;6.35;5.60;;;30.30;99.90;;;;;;4984603;28;20135;-88
2022/06/30 08:09:51;;;;;;;6.85;5.90;;;30.50;99.90;;;;;;5001146;28;20053;-86
2022/06/30 08:12:17;;;;;;;6.40;5.90;;;30.30;99.90;;;;;;5017087;28;20080;-87
2022/06/30 08:14:43;;;;;;;7.90;6.57;;;30.70;99.90;;;;;;5000628;28;20072;-90
2022/06/30 08:17:09;;;;;;;10.68;6.32;;;31.10;99.90;;;;;;5000565;28;20095;-89
2022/06/30 08:19:34;;;;;;;6.43;5.93;;;31.00;99.90;;;;;;5001297;28;20060;-90
2022/06/30 08:22:00;;;;;;;6.70;6.13;;;30.80;99.90;;;;;;4969919;28;20470;-89
2022/06/30 08:24:26;;;;;;;6.78;6.13;;;30.50;99.90;;;;;;5017370;28;20490;-87
2022/06/30 08:26:52;;;;;;;7.38;6.65;;;30.50;99.90;;;;;;5018986;28;20049;-87
2022/06/30 08:29:18;;;;;;;6.00;5.40;;;31.10;99.90;;;;;;4985668;28;20054;-86
2022/06/30 08:31:44;;;;;;;7.95;7.15;;;30.80;99.90;;;;;;4968793;28;20049;-88
2022/06/30 08:34:09;;;;;;;7.53;6.28;;;30.80;99.90;;;;;;5000049;28;20052;-87
2022/06/30 08:36:35;;;;;;;8.30;6.50;;;31.00;99.90;;;;;;5023554;28;20095;-86
2022/06/30 08:39:01;;;;;;;7.57;6.97;;;30.70;99.90;;;;;;5019140;28;20076;-88
2022/06/30 08:44:15;;;;;;;8.07;7.32;;;30.40;99.90;;;;;;5010018;28;20424;-86
2022/06/30 08:46:41;;;;;;;7.35;6.70;;;31.00;99.90;;;;;;4984546;28;20089;-85
2022/06/30 08:49:07;;;;;;;8.40;7.50;;;31.60;99.90;;;;;;4984307;28;20081;-86
2022/06/30 08:51:34;;;;;;;9.05;6.22;;;30.90;99.90;;;;;;5001128;28;20041;-87
2022/06/30 08:54:00;;;;;;;6.80;6.05;;;31.40;99.90;;;;;;4984291;28;20080;-87
2022/06/30 08:56:35;;;;;;;8.13;7.32;;;30.90;99.90;;;;;;4984191;28;20057;-85
2022/06/30 08:59:04;;;;;;;11.75;6.22;;;31.70;99.90;;;;;;5000000;28;20059;-87
2022/06/30 09:01:30;;;;;;;9.02;8.18;;;31.50;99.90;;;;;;5000135;28;20077;-86
2022/06/30 09:03:56;;;;;;;8.73;7.10;;;30.80;99.90;;;;;;4983878;28;20088;-86
2022/06/30 09:06:21;;;;;;;7.60;6.95;;;31.40;99.90;;;;;;5000075;28;20416;-85
2022/06/30 09:08:48;;;;;;;8.63;7.95;;;31.80;99.90;;;;;;5016215;28;20065;-87
2022/06/30 09:11:14;;;;;;;8.65;7.85;;;31.80;99.90;;;;;;5015614;28;20053;-85
2022/06/30 09:13:44;;;;;;;8.80;8.10;;;32.10;99.90;;;;;;5000327;28;20049;-85
2022/06/30 09:16:11;;;;;;;9.18;8.38;;;31.70;99.90;;;;;;4968178;28;20136;-85
2022/06/30 09:18:36;;;;;;;9.23;8.35;;;31.00;99.90;;;;;;5000548;28;20367;-86
2022/06/30 09:21:29;;;;;;;9.00;8.20;;;31.40;99.90;;;;;;5015771;28;20052;-84
2022/06/30 09:23:54;;;;;;;8.55;7.82;;;30.90;99.90;;;;;;4996784;28;20057;-85
2022/06/30 09:26:21;;;;;;;9.30;8.40;;;31.00;99.90;;;;;;5036939;28;20045;-85
2022/06/30 09:28:54;;;;;;;9.05;8.20;;;31.00;99.90;;;;;;5003363;28;20482;-85
2022/06/30 09:31:42;;;;;;;8.98;8.07;;;31.40;99.90;;;;;;4987526;28;20049;-87
2022/06/30 09:34:16;;;;;;;7.80;7.10;;;31.70;99.90;;;;;;5003604;28;20493;-84
2022/06/30 09:36:42;;;;;;;9.60;8.70;;;31.40;99.90;;;;;;5003460;28;20049;-85
2022/06/30 09:39:09;;;;;;;10.02;9.13;;;32.30;99.90;;;;;;4986741;28;20497;-84
2022/06/30 09:41:38;;;;;;;9.57;8.75;;;32.50;99.90;;;;;;5003135;28;20053;-84
2022/06/30 09:44:16;;;;;;;9.20;8.40;;;33.00;99.90;;;;;;5003947;28;20053;-85
2022/06/30 09:47:03;;;;;;;9.10;8.30;;;32.00;99.90;;;;;;5004849;28;20061;-84
2022/06/30 09:49:32;;;;;;;9.70;8.57;;;32.50;99.90;;;;;;4986735;28;20060;-85
2022/06/30 09:51:59;;;;;;;8.80;8.00;;;32.30;99.90;;;;;;5020502;28;20053;-85
2022/06/30 09:54:26;;;;;;;10.05;8.25;;;32.60;99.90;;;;;;4987771;28;20103;-87
2022/06/30 09:57:02;;;;;;;9.40;8.70;;;32.40;99.90;;;;;;5021914;28;20362;-83
2022/06/30 09:59:27;;;;;;;8.60;7.90;;;32.40;99.90;;;;;;5006434;28;20049;-82
2022/06/30 10:01:54;;;;;;;9.57;8.77;;;32.20;99.90;;;;;;5018819;28;20377;-84
2022/06/30 10:04:19;;;;;;;9.48;8.63;;;32.10;99.90;;;;;;5003360;28;20049;-87
2022/06/30 10:06:46;;;;;;;10.13;9.23;;;32.40;99.90;;;;;;5018179;28;20053;-86
2022/06/30 10:09:17;;;;;;;10.82;9.43;;;32.50;99.90;;;;;;4990241;28;20061;-86
2022/06/30 10:11:43;;;;;;;8.85;8.02;;;32.10;99.90;;;;;;5006474;28;20057;-86
2022/06/30 10:14:09;;;;;;;10.13;9.18;;;32.30;99.90;;;;;;5037108;28;20049;-87
2022/06/30 10:16:35;;;;;;;9.77;8.70;;;32.30;99.90;;;;;;5009044;28;20049;-90
2022/06/30 10:19:01;;;;;;;10.52;7.22;;;31.90;99.90;;;;;;4988758;28;20135;-87
2022/06/30 10:21:26;;;;;;;9.82;8.80;;;32.20;99.90;;;;;;4986273;28;20049;-87
2022/06/30 10:23:52;;;;;;;8.63;7.95;;;32.30;99.90;;;;;;5002918;28;20532;-87
2022/06/30 10:29:03;;;;;;;9.25;8.45;;;32.60;99.90;;;;;;5020834;28;20065;-85
2022/06/30 10:31:43;;;;;;;9.65;8.85;;;32.90;99.90;;;;;;5003280;28;20057;-86
2022/06/30 10:34:15;;;;;;;9.35;8.35;;;32.60;99.90;;;;;;5002440;28;20050;-87
2022/06/30 10:36:44;;;;;;;9.93;9.00;;;31.90;99.90;;;;;;5001358;28;20057;-84
2022/06/30 10:39:24;;;;;;;9.20;8.48;;;31.90;99.90;;;;;;5003198;28;20056;-86
2022/06/30 10:41:50;;;;;;;10.50;9.57;;;31.10;99.90;;;;;;5003432;28;20049;-84
2022/06/30 10:44:20;;;;;;;8.80;8.07;;;31.00;99.90;;;;;;5002317;28;20046;-84
2022/06/30 10:46:51;;;;;;;8.90;7.97;;;29.80;99.90;;;;;;4985529;28;20057;-86
2022/06/30 10:49:17;;;;;;;11.45;8.68;;;29.80;99.90;;;;;;5018413;28;20053;-86
2022/06/30 10:51:42;;;;;;;9.80;8.90;;;30.10;99.90;;;;;;5035532;28;20049;-85
2022/06/30 10:54:11;;;;;;;12.23;11.15;;;30.20;99.90;;;;;;5001483;28;20450;-84
2022/06/30 10:56:49;;;;;;;9.55;8.60;;;30.00;99.90;;;;;;4986717;28;20402;-86
2022/06/30 10:59:15;;;;;;;9.70;8.70;;;29.60;99.90;;;;;;5001261;28;20056;-85
2022/06/30 11:02:15;;;;;;;9.68;8.88;;;29.40;99.90;;;;;;5017621;28;20045;-84
2022/06/30 11:04:45;;;;;;;9.35;8.63;;;29.10;99.90;;;;;;5018238;28;20132;-83
2022/06/30 11:07:12;;;;;;;9.40;8.57;;;29.10;99.90;;;;;;4999948;28;20097;-84
2022/06/30 11:09:43;;;;;;;9.13;8.20;;;29.10;99.90;;;;;;5000870;28;20496;-84
2022/06/30 11:12:12;;;;;;;8.88;8.18;;;29.10;99.90;;;;;;5017431;28;20080;-86
2022/06/30 11:14:41;;;;;;;9.13;8.43;;;29.00;99.90;;;;;;5001023;28;20045;-84
2022/06/30 11:17:13;;;;;;;10.45;8.90;;;29.00;99.90;;;;;;5001113;28;20058;-86
2022/06/30 11:19:39;;;;;;;8.88;8.05;;;29.00;99.90;;;;;;5034930;28;20042;-84
2022/06/30 11:22:05;;;;;;;10.63;9.80;;;29.10;99.90;;;;;;5021272;28;20049;-85
2022/06/30 11:24:31;;;;;;;11.30;10.18;;;29.50;99.90;;;;;;5023584;28;20045;-84
2022/06/30 11:29:41;;;;;;;9.65;8.75;;;29.90;99.90;;;;;;4994328;28;20437;-85
2022/06/30 11:32:09;;;;;;;9.77;8.88;;;29.90;99.90;;;;;;4988758;28;20116;-86
2022/06/30 11:34:37;;;;;;;9.52;8.73;;;30.90;99.90;;;;;;5018679;28;20091;-85
2022/06/30 11:37:03;;;;;;;9.88;8.95;;;30.50;99.90;;;;;;5017362;28;20049;-84
2022/06/30 11:39:28;;;;;;;9.30;8.35;;;30.50;99.90;;;;;;5017648;28;20045;-84
2022/06/30 11:41:57;;;;;;;11.15;9.80;;;29.90;99.90;;;;;;5002681;28;20052;-88
2022/06/30 11:44:38;;;;;;;9.45;8.55;;;29.60;99.90;;;;;;5023910;28;20041;-87
2022/06/30 11:47:04;;;;;;;9.35;8.48;;;29.60;99.90;;;;;;5012678;28;20038;-86
2022/06/30 11:49:45;;;;;;;9.25;8.43;;;29.40;99.90;;;;;;5041288;28;20072;-91
2022/06/30 11:52:15;;;;;;;9.23;8.52;;;29.40;99.90;;;;;;5026976;28;20049;-86
2022/06/30 11:54:53;;;;;;;9.35;8.45;;;29.80;99.90;;;;;;4985085;28;20045;-85
2022/06/30 11:57:20;;;;;;;9.60;8.57;;;30.20;99.90;;;;;;5000539;28;20087;-87
2022/06/30 11:59:47;;;;;;;9.63;8.00;;;30.40;99.90;;;;;;5016812;28;20053;-86
2022/06/30 12:02:13;;;;;;;7.65;7.03;;;30.40;99.90;;;;;;5001327;28;20047;-85
2022/06/30 12:04:41;;;;;;;5.70;5.20;;;30.70;99.90;;;;;;5000608;28;20053;-87
2022/06/30 12:07:11;;;;;;;7.40;4.80;;;30.90;99.90;;;;;;5016415;28;20057;-85
2022/06/30 12:09:37;;;;;;;5.68;5.18;;;31.40;99.90;;;;;;5001788;28;20053;-85
2022/06/30 12:12:03;;;;;;;8.20;5.45;;;31.60;99.30;;;;;;4987956;28;20052;-84
2022/06/30 12:14:34;;;;;;;6.47;5.25;;;31.50;99.70;;;;;;5002264;28;20076;-84
2022/06/30 12:17:00;;;;;;;5.93;5.30;;;31.50;99.90;;;;;;4984922;28;20061;-87
2022/06/30 12:19:28;;;;;;;6.50;5.90;;;30.90;99.90;;;;;;4969275;28;20562;-84
2022/06/30 12:21:54;;;;;;;7.55;6.07;;;30.70;99.90;;;;;;5034078;28;20042;-86
2022/06/30 12:24:21;;;;;;;6.20;5.60;;;30.90;99.90;;;;;;4968282;28;20045;-84
2022/06/30 12:26:56;;;;;;;6.10;5.60;;;30.80;99.90;;;;;;5001487;28;20065;-84
2022/06/30 12:29:22;;;;;;;6.20;5.60;;;31.10;99.90;;;;;;5000116;28;20477;-86
2022/06/30 12:32:00;;;;;;;7.10;5.53;;;31.10;99.90;;;;;;4984080;28;20111;-87
2022/06/30 12:34:26;;;;;;;6.78;5.32;;;30.60;99.90;;;;;;5000457;28;20053;-84
2022/06/30 12:36:53;;;;;;;8.15;6.20;;;30.50;99.90;;;;;;5017157;28;20045;-85
2022/06/30 12:39:18;;;;;;;7.35;6.15;;;30.10;99.90;;;;;;5000036;28;20449;-87
2022/06/30 12:41:44;;;;;;;6.07;5.55;;;29.90;99.90;;;;;;4983842;28;20116;-86
2022/06/30 12:44:13;;;;;;;6.20;5.78;;;29.70;99.90;;;;;;5000248;28;20040;-86
2022/06/30 12:46:45;;;;;;;7.95;5.80;;;29.70;99.90;;;;;;5002442;28;20081;-87
2022/06/30 12:49:23;;;;;;;8.80;5.63;;;29.50;99.90;;;;;;5034956;28;20056;-87
2022/06/30 12:51:49;;;;;;;8.80;5.78;;;29.60;99.90;;;;;;5033563;28;20470;-87
2022/06/30 12:54:18;;;;;;;8.70;5.70;;;29.40;99.90;;;;;;5000799;28;20045;-85
2022/06/30 12:56:50;;;;;;;8.50;5.88;;;29.50;99.90;;;;;;4984323;28;20042;-87
2022/06/30 12:59:19;;;;;;;6.10;5.45;;;29.40;99.90;;;;;;5018566;28;20448;-87
2022/06/30 13:01:55;;;;;;;8.90;5.65;;;29.30;99.90;;;;;;4988179;28;20516;-87
2022/06/30 13:04:28;;;;;;;10.80;6.18;;;29.10;99.90;;;;;;5005954;28;20060;-91